createdAt,value
2023-02-04T00:00:05.908Z,19.8
2023-02-04T00:01:08.428Z,19.4
2023-02-04T00:02:10.657Z,19.7
2023-02-04T00:03:13.170Z,19.2
2023-02-04T00:04:15.407Z,19.5
2023-02-04T00:05:17.625Z,20
2023-02-04T00:06:20.259Z,20.1
2023-02-04T00:07:22.486Z,19.4
2023-02-04T00:08:24.748Z,20
2023-02-04T00:09:26.946Z,20.3
2023-02-04T00:10:29.726Z,19.8
2023-02-04T00:11:34.399Z,20.1
2023-02-04T00:12:36.923Z,19.9
2023-02-04T00:13:39.407Z,19.8
2023-02-04T00:14:41.914Z,19.7
2023-02-04T00:15:44.178Z,20.1
2023-02-04T00:16:46.693Z,19.9
2023-02-04T00:17:48.908Z,19.9
2023-02-04T00:18:51.153Z,20
2023-02-04T00:19:53.655Z,19.9
2023-02-04T00:20:56.178Z,20.1
2023-02-04T00:21:58.404Z,19.8
2023-02-04T00:23:00.951Z,19.9
2023-02-04T00:24:03.469Z,20.1
2023-02-04T00:25:05.705Z,20.4
2023-02-04T00:26:08.393Z,19.9
2023-02-04T00:27:10.629Z,19.9
2023-02-04T00:28:12.911Z,20.2
2023-02-04T00:29:15.716Z,19.9
2023-02-04T00:30:18.207Z,19.8
2023-02-04T00:31:20.826Z,20
2023-02-04T00:32:23.993Z,20.1
2023-02-04T00:33:26.874Z,19.8
2023-02-04T00:34:29.404Z,20.3
2023-02-04T00:35:31.641Z,20.3
2023-02-04T00:36:34.152Z,20.1
2023-02-04T00:37:36.358Z,20.2
2023-02-04T00:38:38.889Z,20.1
2023-02-04T00:39:41.396Z,20.1
2023-02-04T00:40:43.882Z,19.9
2023-02-04T00:41:46.464Z,20.5
2023-02-04T00:42:48.958Z,20.4
2023-02-04T00:43:51.480Z,20
2023-02-04T00:44:53.977Z,20.3
2023-02-04T00:45:56.608Z,20.5
2023-02-04T00:46:59.156Z,20.3
2023-02-04T00:48:01.375Z,20.1
2023-02-04T00:49:03.873Z,20.3
2023-02-04T00:50:06.368Z,20.1
2023-02-04T00:51:08.938Z,20.2
2023-02-04T00:52:11.435Z,20.3
2023-02-04T00:53:13.915Z,20
2023-02-04T00:54:16.407Z,20.2
2023-02-04T00:55:18.952Z,20.3
2023-02-04T00:56:21.176Z,20.6
2023-02-04T00:57:23.765Z,20.3
2023-02-04T00:58:26.249Z,20.4
2023-02-04T00:59:28.509Z,20.3
2023-02-04T01:00:31.448Z,20.2
2023-02-04T01:01:35.110Z,20
2023-02-04T01:02:37.653Z,20.1
2023-02-04T01:03:40.024Z,20.3
2023-02-04T01:04:42.509Z,20.2
2023-02-04T01:05:45.004Z,20.4
2023-02-04T01:06:47.506Z,20.4
2023-02-04T01:07:50.015Z,20.3
2023-02-04T01:08:52.209Z,20.4
2023-02-04T01:09:54.734Z,20.1
2023-02-04T01:10:56.992Z,20.4
2023-02-04T01:11:59.526Z,20.2
2023-02-04T01:13:02.116Z,20.6
2023-02-04T01:14:04.628Z,20.1
2023-02-04T01:15:06.550Z,20.1
2023-02-04T01:16:09.110Z,20.3
2023-02-04T01:17:11.885Z,20
2023-02-04T01:18:14.380Z,20.4
2023-02-04T01:19:16.860Z,20.5
2023-02-04T01:20:19.179Z,20.3
2023-02-04T01:21:21.375Z,20.4
2023-02-04T01:22:23.913Z,20.3
2023-02-04T01:23:26.129Z,20.2
2023-02-04T01:24:28.636Z,20.1
2023-02-04T01:25:30.907Z,20.2
2023-02-04T01:26:32.868Z,20.1
2023-02-04T01:27:35.104Z,20.5
2023-02-04T01:28:37.703Z,20.7
2023-02-04T01:29:40.211Z,20.3
2023-02-04T01:30:42.504Z,20.5
2023-02-04T01:31:45.167Z,20.5
2023-02-04T01:32:47.711Z,20.7
2023-02-04T01:33:50.222Z,20.6
2023-02-04T01:34:52.713Z,20.2
2023-02-04T01:35:57.821Z,20.4
2023-02-04T01:37:00.032Z,20.2
2023-02-04T01:38:02.261Z,20.2
2023-02-04T01:39:04.793Z,20.6
2023-02-04T01:40:07.288Z,20.2
2023-02-04T01:41:09.785Z,20.5
2023-02-04T01:42:12.289Z,20.3
2023-02-04T01:43:14.497Z,20.2
2023-02-04T01:44:17.088Z,20.2
2023-02-04T01:45:19.602Z,20.5
2023-02-04T01:46:22.101Z,20.2
2023-02-04T01:47:24.588Z,20.3
2023-02-04T01:48:26.842Z,20.4
2023-02-04T01:49:29.349Z,20.8
2023-02-04T01:50:31.848Z,20.2
2023-02-04T01:51:34.918Z,20.4
2023-02-04T01:52:37.415Z,20.6
2023-02-04T01:53:39.719Z,20.4
2023-02-04T01:54:42.197Z,20.5
2023-02-04T01:55:44.386Z,20.4
2023-02-04T01:56:46.599Z,20.5
2023-02-04T01:57:48.864Z,20.8
2023-02-04T01:58:51.356Z,20.6
2023-02-04T01:59:53.943Z,20.4
2023-02-04T02:00:56.452Z,20.4
2023-02-04T02:01:59.141Z,20.7
2023-02-04T02:03:01.632Z,20.8
2023-02-04T02:04:03.865Z,20.5
2023-02-04T02:05:05.818Z,20.5
2023-02-04T02:06:08.342Z,20.5
2023-02-04T02:07:10.844Z,20.4
2023-02-04T02:08:13.354Z,20.4
2023-02-04T02:09:15.265Z,20.4
2023-02-04T02:10:17.761Z,20.6
2023-02-04T02:11:20.288Z,20.6
2023-02-04T02:12:22.820Z,20.5
2023-02-04T02:13:25.337Z,20.4
2023-02-04T02:14:27.016Z,20.7
2023-02-04T02:15:29.591Z,20.3
2023-02-04T02:16:32.161Z,20.5
2023-02-04T02:17:34.619Z,20.7
2023-02-04T02:18:37.124Z,20.7
2023-02-04T02:19:39.352Z,20.7
2023-02-04T02:20:41.295Z,20.4
2023-02-04T02:21:42.946Z,20.6
2023-02-04T02:22:45.451Z,20.5
2023-02-04T02:23:47.951Z,20.7
2023-02-04T02:24:50.164Z,20.5
2023-02-04T02:25:52.387Z,20.5
2023-02-04T02:26:54.623Z,20.4
2023-02-04T02:27:57.156Z,20.7
2023-02-04T02:28:59.679Z,20.6
2023-02-04T02:30:02.168Z,20.6
2023-02-04T02:31:04.869Z,20.8
2023-02-04T02:32:08.008Z,20.5
2023-02-04T02:33:10.511Z,21
2023-02-04T02:34:13.005Z,20.5
2023-02-04T02:35:15.530Z,20.5
2023-02-04T02:36:18.041Z,20.4
2023-02-04T02:37:20.547Z,20.6
2023-02-04T02:38:22.497Z,20.9
2023-02-04T02:39:24.722Z,20.6
2023-02-04T02:40:27.249Z,20.5
2023-02-04T02:41:31.366Z,20.5
2023-02-04T02:42:33.853Z,20.5
2023-02-04T02:43:36.060Z,20.7
2023-02-04T02:44:38.592Z,20.5
2023-02-04T02:45:40.798Z,20.5
2023-02-04T02:46:43.694Z,20.7
2023-02-04T02:47:45.901Z,20.6
2023-02-04T02:48:47.837Z,20.6
2023-02-04T02:49:49.784Z,20.5
2023-02-04T02:50:52.302Z,20.5
2023-02-04T02:51:54.515Z,20.6
2023-02-04T02:52:57.006Z,20.6
2023-02-04T02:53:59.550Z,20.5
2023-02-04T02:55:02.078Z,20.6
2023-02-04T02:56:04.637Z,20.4
2023-02-04T02:57:06.866Z,20.7
2023-02-04T02:58:09.361Z,20.9
2023-02-04T02:59:11.279Z,20.5
2023-02-04T03:00:13.571Z,20.5
2023-02-04T03:01:16.129Z,20.3
2023-02-04T03:02:18.941Z,20.7
2023-02-04T03:03:21.602Z,20.9
2023-02-04T03:04:24.107Z,21
2023-02-04T03:05:26.612Z,20.6
2023-02-04T03:06:29.089Z,20.6
2023-02-04T03:07:31.308Z,20.7
2023-02-04T03:08:33.877Z,20.6
2023-02-04T03:09:36.379Z,20.5
2023-02-04T03:10:38.618Z,20.7
2023-02-04T03:11:40.817Z,20.7
2023-02-04T03:12:43.317Z,20.8
2023-02-04T03:13:45.533Z,20.9
2023-02-04T03:14:48.037Z,20.8
2023-02-04T03:15:50.573Z,20.8
2023-02-04T03:16:53.080Z,21
2023-02-04T03:17:55.664Z,20.7
2023-02-04T03:18:58.212Z,20.6
2023-02-04T03:20:00.706Z,20.8
2023-02-04T03:21:02.915Z,20.8
2023-02-04T03:22:05.543Z,20.5
2023-02-04T03:23:07.765Z,20.7
2023-02-04T03:24:10.260Z,20.5
2023-02-04T03:25:12.776Z,20.8
2023-02-04T03:26:15.286Z,20.9
2023-02-04T03:27:17.815Z,20.5
2023-02-04T03:28:19.754Z,20.7
2023-02-04T03:29:21.977Z,20.5
2023-02-04T03:30:24.229Z,20.6
2023-02-04T03:31:26.705Z,20.9
2023-02-04T03:32:29.178Z,20.4
2023-02-04T03:33:31.805Z,21
2023-02-04T03:34:34.311Z,20.9
2023-02-04T03:35:36.800Z,20.8
2023-02-04T03:36:39.306Z,20.6
2023-02-04T03:37:41.798Z,20.8
2023-02-04T03:38:44.294Z,20.7
2023-02-04T03:39:46.527Z,20.6
2023-02-04T03:40:48.748Z,20.6
2023-02-04T03:41:51.258Z,20.7
2023-02-04T03:42:53.745Z,20.6
2023-02-04T03:43:56.227Z,20.8
2023-02-04T03:44:58.733Z,20.5
2023-02-04T03:46:00.973Z,20.6
2023-02-04T03:47:03.700Z,20.5
2023-02-04T03:48:06.205Z,20.8
2023-02-04T03:49:08.798Z,20.8
2023-02-04T03:50:11.293Z,20.7
2023-02-04T03:51:13.844Z,20.8
2023-02-04T03:52:15.765Z,20.7
2023-02-04T03:53:17.709Z,20.7
2023-02-04T03:54:20.200Z,20.9
2023-02-04T03:55:22.421Z,20.9
2023-02-04T03:56:24.912Z,20.8
2023-02-04T03:57:27.118Z,20.7
2023-02-04T03:58:29.625Z,20.8
2023-02-04T03:59:32.131Z,20.8
2023-02-04T04:00:34.370Z,20.9
2023-02-04T04:01:36.675Z,20.8
2023-02-04T04:02:39.561Z,20.6
2023-02-04T04:03:42.129Z,20.6
2023-02-04T04:04:44.717Z,20.7
2023-02-04T04:05:46.653Z,21
2023-02-04T04:06:48.923Z,20.8
2023-02-04T04:07:50.847Z,20.8
2023-02-04T04:08:52.783Z,20.6
2023-02-04T04:09:55.314Z,20.7
2023-02-04T04:10:57.827Z,20.6
2023-02-04T04:12:00.303Z,20.6
2023-02-04T04:13:02.530Z,20.8
2023-02-04T04:14:05.028Z,20.6
2023-02-04T04:15:06.712Z,20.5
2023-02-04T04:16:09.322Z,20.8
2023-02-04T04:17:12.278Z,20.7
2023-02-04T04:18:14.797Z,20.9
2023-02-04T04:19:17.280Z,20.6
2023-02-04T04:20:19.870Z,20.6
2023-02-04T04:21:22.356Z,20.8
2023-02-04T04:22:24.853Z,20.5
2023-02-04T04:23:27.340Z,20.3
2023-02-04T04:24:29.570Z,20.3
2023-02-04T04:25:31.488Z,20.7
2023-02-04T04:26:33.419Z,20.7
2023-02-04T04:27:35.938Z,20.7
2023-02-04T04:28:38.436Z,20.4
2023-02-04T04:29:40.921Z,20.8
2023-02-04T04:30:43.485Z,20.3
2023-02-04T04:31:45.971Z,20.5
2023-02-04T04:32:48.721Z,20.4
2023-02-04T04:33:51.023Z,20.5
2023-02-04T04:34:53.512Z,20.4
2023-02-04T04:35:56.120Z,20.4
2023-02-04T04:36:58.061Z,20.3
2023-02-04T04:38:00.574Z,20.4
2023-02-04T04:39:02.781Z,20.3
2023-02-04T04:40:05.384Z,20.4
2023-02-04T04:41:07.870Z,20.4
2023-02-04T04:42:10.358Z,20.6
2023-02-04T04:43:12.855Z,20.5
2023-02-04T04:44:15.347Z,20.3
2023-02-04T04:45:17.849Z,20.5
2023-02-04T04:46:20.433Z,20.6
2023-02-04T04:47:23.124Z,20.5
2023-02-04T04:48:25.346Z,20.6
2023-02-04T04:49:27.864Z,20.6
2023-02-04T04:50:30.405Z,20.5
2023-02-04T04:51:35.032Z,20.7
2023-02-04T04:52:37.596Z,20.4
2023-02-04T04:53:39.818Z,20.2
2023-02-04T04:54:42.029Z,20.6
2023-02-04T04:55:44.524Z,20.3
2023-02-04T04:56:46.759Z,20.2
2023-02-04T04:57:49.266Z,20.6
2023-02-04T04:58:51.806Z,20.4
2023-02-04T04:59:54.056Z,20.4
2023-02-04T05:00:56.608Z,20.4
2023-02-04T05:01:58.869Z,20.5
2023-02-04T05:03:01.420Z,20.4
2023-02-04T05:04:03.926Z,20.6
2023-02-04T05:05:06.243Z,20.5
2023-02-04T05:06:09.102Z,20.3
2023-02-04T05:07:11.692Z,20.3
2023-02-04T05:08:14.182Z,20.5
2023-02-04T05:09:16.695Z,20.5
2023-02-04T05:10:19.180Z,20.5
2023-02-04T05:11:21.696Z,20.4
2023-02-04T05:12:23.404Z,20.5
2023-02-04T05:13:25.911Z,20.4
2023-02-04T05:14:28.129Z,20.4
2023-02-04T05:15:30.701Z,20.6
2023-02-04T05:16:32.974Z,20.3
2023-02-04T05:17:35.725Z,20.3
2023-02-04T05:18:38.240Z,20.5
2023-02-04T05:19:40.449Z,20.4
2023-02-04T05:20:42.700Z,20.6
2023-02-04T05:21:44.931Z,20.1
2023-02-04T05:22:47.584Z,20.4
2023-02-04T05:23:49.802Z,20.1
2023-02-04T05:24:52.010Z,20.4
2023-02-04T05:25:54.233Z,20
2023-02-04T05:26:56.184Z,20.5
2023-02-04T05:27:58.729Z,20.5
2023-02-04T05:29:01.610Z,20.2
2023-02-04T05:30:03.936Z,20.4
2023-02-04T05:31:06.208Z,20.2
2023-02-04T05:32:09.362Z,20.1
2023-02-04T05:33:11.866Z,20.4
2023-02-04T05:34:14.400Z,20.5
2023-02-04T05:35:16.903Z,20.6
2023-02-04T05:36:19.137Z,20.4
2023-02-04T05:37:21.638Z,20
2023-02-04T05:38:24.275Z,20.6
2023-02-04T05:39:26.776Z,20.3
2023-02-04T05:40:29.007Z,20.4
2023-02-04T05:41:33.267Z,20.1
2023-02-04T05:42:35.479Z,20.4
2023-02-04T05:43:37.413Z,20.2
2023-02-04T05:44:39.927Z,20.2
2023-02-04T05:45:42.458Z,20.5
2023-02-04T05:46:45.331Z,20.2
2023-02-04T05:47:47.836Z,20.1
2023-02-04T05:48:50.341Z,20.4
2023-02-04T05:49:52.827Z,20.2
2023-02-04T05:50:55.325Z,20.2
2023-02-04T05:51:57.553Z,20.1
2023-02-04T05:53:00.033Z,20.4
2023-02-04T05:54:02.624Z,20.4
2023-02-04T05:55:04.853Z,20.5
2023-02-04T05:56:07.072Z,20.3
2023-02-04T05:57:09.287Z,20.2
2023-02-04T05:58:11.783Z,20.5
2023-02-04T05:59:14.014Z,20.4
2023-02-04T06:00:16.547Z,20.4
2023-02-04T06:01:19.067Z,20.4
2023-02-04T06:02:21.566Z,20
2023-02-04T06:03:24.111Z,20.4
2023-02-04T06:04:26.956Z,20.2
2023-02-04T06:05:29.726Z,20.1
2023-02-04T06:06:32.272Z,20.2
2023-02-04T06:07:34.984Z,20.4
2023-02-04T06:08:37.218Z,20.4
2023-02-04T06:09:39.810Z,20.6
2023-02-04T06:10:42.012Z,20.5
2023-02-04T06:11:44.251Z,20.1
2023-02-04T06:12:46.779Z,20.4
2023-02-04T06:13:49.277Z,20.3
2023-02-04T06:14:51.501Z,20
2023-02-04T06:15:53.726Z,20.2
2023-02-04T06:16:56.237Z,20.2
2023-02-04T06:17:59.078Z,20.4
2023-02-04T06:19:01.619Z,20.4
2023-02-04T06:20:04.131Z,20.1
2023-02-04T06:21:06.322Z,20.2
2023-02-04T06:22:08.250Z,20.2
2023-02-04T06:23:10.792Z,20.2
2023-02-04T06:24:13.287Z,20.4
2023-02-04T06:25:15.918Z,20
2023-02-04T06:26:18.468Z,20.4
2023-02-04T06:27:20.997Z,20.3
2023-02-04T06:28:23.501Z,20.1
2023-02-04T06:29:26.044Z,20.4
2023-02-04T06:30:28.664Z,20.4
2023-02-04T06:31:32.516Z,20.2
2023-02-04T06:32:35.738Z,20.3
2023-02-04T06:33:37.938Z,20.1
2023-02-04T06:34:39.867Z,20.4
2023-02-04T06:35:42.359Z,20.3
2023-02-04T06:36:44.860Z,20.2
2023-02-04T06:37:47.059Z,20.3
2023-02-04T06:38:49.666Z,20.2
2023-02-04T06:39:52.188Z,20.5
2023-02-04T06:40:54.857Z,20.2
2023-02-04T06:41:57.346Z,20.4
2023-02-04T06:42:59.824Z,20.1
2023-02-04T06:44:05.111Z,20
2023-02-04T06:45:07.630Z,20.2
2023-02-04T06:46:10.158Z,20.2
2023-02-04T06:47:12.769Z,20.4
2023-02-04T06:48:14.685Z,19.9
2023-02-04T06:49:16.912Z,20.4
2023-02-04T06:50:19.430Z,20
2023-02-04T06:51:21.377Z,20.2
2023-02-04T06:52:23.896Z,20.2
2023-02-04T06:53:26.462Z,20.3
2023-02-04T06:54:28.980Z,20.4
2023-02-04T06:55:31.483Z,20.2
2023-02-04T06:56:34.099Z,20.3
2023-02-04T06:57:36.630Z,20.2
2023-02-04T06:58:38.932Z,20.1
2023-02-04T06:59:41.172Z,20.2
2023-02-04T07:00:43.705Z,20.5
2023-02-04T07:01:46.083Z,19.9
2023-02-04T07:02:48.960Z,20.3
2023-02-04T07:03:51.973Z,20.4
2023-02-04T07:04:54.507Z,20.3
2023-02-04T07:05:56.457Z,20.3
2023-02-04T07:06:58.146Z,20
2023-02-04T07:08:00.647Z,20.2
2023-02-04T07:09:02.893Z,20
2023-02-04T07:10:05.426Z,20.1
2023-02-04T07:11:07.716Z,20.2
2023-02-04T07:12:10.024Z,20
2023-02-04T07:13:12.537Z,20.2
2023-02-04T07:14:14.764Z,20.1
2023-02-04T07:15:17.254Z,20
2023-02-04T07:16:19.250Z,20.1
2023-02-04T07:17:21.741Z,19.8
2023-02-04T07:18:23.977Z,20.2
2023-02-04T07:19:25.979Z,20.4
2023-02-04T07:20:28.252Z,19.9
2023-02-04T07:21:31.150Z,20.3
2023-02-04T07:22:33.376Z,20.1
2023-02-04T07:23:35.614Z,20.3
2023-02-04T07:24:37.837Z,20.4
2023-02-04T07:25:39.881Z,20.2
2023-02-04T07:26:41.535Z,20.3
2023-02-04T07:27:44.199Z,19.9
2023-02-04T07:28:46.664Z,20.2
2023-02-04T07:29:48.879Z,20.2
2023-02-04T07:30:50.983Z,20.2
2023-02-04T07:31:54.233Z,19.9
2023-02-04T07:32:57.270Z,20.2
2023-02-04T07:33:59.834Z,20.1
2023-02-04T07:35:02.361Z,20.1
2023-02-04T07:36:04.949Z,20
2023-02-04T07:37:07.236Z,20.1
2023-02-04T07:38:09.238Z,20.3
2023-02-04T07:39:11.203Z,20.3
2023-02-04T07:40:13.172Z,20.1
2023-02-04T07:41:15.726Z,19.9
2023-02-04T07:42:18.993Z,20.2
2023-02-04T07:43:21.587Z,20
2023-02-04T07:44:24.116Z,20.1
2023-02-04T07:45:26.368Z,20.4
2023-02-04T07:46:28.383Z,20.4
2023-02-04T07:47:31.306Z,20.1
2023-02-04T07:48:33.251Z,20.3
2023-02-04T07:49:35.787Z,20.2
2023-02-04T07:50:38.005Z,19.9
2023-02-04T07:51:40.497Z,19.9
2023-02-04T07:52:42.704Z,20
2023-02-04T07:53:44.912Z,20
2023-02-04T07:54:47.146Z,20.2
2023-02-04T07:55:49.646Z,20
2023-02-04T07:56:52.162Z,20.3
2023-02-04T07:57:54.430Z,20.1
2023-02-04T07:58:57.022Z,20.1
2023-02-04T07:59:59.262Z,19.8
2023-02-04T08:01:01.538Z,20.1
2023-02-04T08:02:04.120Z,20.3
2023-02-04T08:03:06.801Z,19.9
2023-02-04T08:04:09.763Z,20.3
2023-02-04T08:05:12.284Z,20.4
2023-02-04T08:06:14.791Z,19.8
2023-02-04T08:07:17.292Z,19.9
2023-02-04T08:08:19.530Z,20
2023-02-04T08:09:22.019Z,20.1
2023-02-04T08:10:24.540Z,20.1
2023-02-04T08:11:26.792Z,20.1
2023-02-04T08:12:29.402Z,20
2023-02-04T08:13:31.612Z,20.2
2023-02-04T08:14:34.214Z,20
2023-02-04T08:15:36.788Z,20
2023-02-04T08:16:39.580Z,20.2
2023-02-04T08:17:42.090Z,20.1
2023-02-04T08:18:44.634Z,20
2023-02-04T08:19:46.882Z,20.1
2023-02-04T08:20:49.399Z,20.3
2023-02-04T08:21:51.882Z,20
2023-02-04T08:22:53.802Z,19.9
2023-02-04T08:23:55.738Z,20
2023-02-04T08:24:58.247Z,20.3
2023-02-04T08:26:00.511Z,20.1
2023-02-04T08:27:02.482Z,19.9
2023-02-04T08:28:04.756Z,19.9
2023-02-04T08:29:07.278Z,20.1
2023-02-04T08:30:09.920Z,20.3
2023-02-04T08:31:12.536Z,20
2023-02-04T08:32:15.732Z,19.9
2023-02-04T08:33:17.968Z,20.1
2023-02-04T08:34:20.485Z,19.9
2023-02-04T08:35:23.000Z,20.1
2023-02-04T08:36:25.512Z,19.8
2023-02-04T08:37:27.759Z,19.7
2023-02-04T08:38:30.284Z,20.1
2023-02-04T08:39:33.455Z,20
2023-02-04T08:40:35.952Z,20
2023-02-04T08:41:38.537Z,19.9
2023-02-04T08:42:41.073Z,19.9
2023-02-04T08:43:43.580Z,20.2
2023-02-04T08:44:46.181Z,20.1
2023-02-04T08:45:49.380Z,20
2023-02-04T08:46:51.902Z,19.8
2023-02-04T08:47:54.650Z,20.3
2023-02-04T08:48:57.139Z,19.9
2023-02-04T08:49:59.072Z,19.9
2023-02-04T08:51:01.337Z,20.1
2023-02-04T08:52:03.851Z,19.9
2023-02-04T08:53:06.093Z,19.9
2023-02-04T08:54:08.591Z,19.9
2023-02-04T08:55:10.836Z,20
2023-02-04T08:56:13.076Z,20.1
2023-02-04T08:57:15.575Z,19.9
2023-02-04T08:58:18.088Z,20.1
2023-02-04T08:59:20.351Z,20.1
2023-02-04T09:00:22.298Z,19.6
2023-02-04T09:01:25.000Z,19.9
2023-02-04T09:02:27.491Z,19.8
2023-02-04T09:03:30.281Z,20.1
2023-02-04T09:04:32.522Z,20.3
2023-02-04T09:05:34.750Z,20.1
2023-02-04T09:06:36.964Z,19.7
2023-02-04T09:07:39.481Z,20.1
2023-02-04T09:08:41.988Z,20.1
2023-02-04T09:09:44.228Z,20
2023-02-04T09:10:46.465Z,19.8
2023-02-04T09:11:48.417Z,20
2023-02-04T09:12:50.922Z,20.1
2023-02-04T09:13:53.149Z,19.9
2023-02-04T09:14:54.851Z,20
2023-02-04T09:15:57.230Z,20.4
2023-02-04T09:17:00.117Z,19.8
2023-02-04T09:18:02.356Z,19.9
2023-02-04T09:19:04.853Z,20.1
2023-02-04T09:20:07.096Z,20
2023-02-04T09:21:09.344Z,20.1
2023-02-04T09:22:11.575Z,20.1
2023-02-04T09:23:14.087Z,19.9
2023-02-04T09:24:16.372Z,20.1
2023-02-04T09:25:18.865Z,20.4
2023-02-04T09:26:21.370Z,20.3
2023-02-04T09:27:23.877Z,20.3
2023-02-04T09:28:26.384Z,19.9
2023-02-04T09:29:28.913Z,20.1
2023-02-04T09:30:31.729Z,20
2023-02-04T09:31:36.103Z,20.2
2023-02-04T09:32:38.677Z,20.2
2023-02-04T09:33:41.200Z,20.2
2023-02-04T09:34:43.695Z,19.9
2023-02-04T09:35:45.933Z,20.3
2023-02-04T09:36:48.459Z,19.9
2023-02-04T09:37:50.966Z,20.1
2023-02-04T09:38:53.204Z,20
2023-02-04T09:39:55.694Z,20.1
2023-02-04T09:40:57.889Z,20
2023-02-04T09:42:00.392Z,20.2
2023-02-04T09:43:02.926Z,19.9
2023-02-04T09:44:05.441Z,19.9
2023-02-04T09:45:07.663Z,20
2023-02-04T09:46:10.204Z,20.2
2023-02-04T09:47:13.115Z,20
2023-02-04T09:48:16.116Z,20
2023-02-04T09:49:18.370Z,20.2
2023-02-04T09:50:20.896Z,20.2
2023-02-04T09:51:23.678Z,20
2023-02-04T09:52:25.916Z,19.8
2023-02-04T09:53:28.141Z,20.1
2023-02-04T09:54:30.350Z,20.2
2023-02-04T09:55:32.883Z,20.4
2023-02-04T09:56:35.098Z,20.3
2023-02-04T09:57:37.618Z,20.6
2023-02-04T09:58:39.534Z,20.1
2023-02-04T09:59:42.021Z,20.1
2023-02-04T10:00:44.557Z,19.9
2023-02-04T10:01:46.860Z,20.1
2023-02-04T10:02:49.067Z,19.8
2023-02-04T10:03:51.855Z,20.5
2023-02-04T10:04:54.120Z,20.2
2023-02-04T10:05:56.091Z,19.9
2023-02-04T10:06:58.374Z,20.2
2023-02-04T10:08:00.563Z,19.8
2023-02-04T10:09:03.081Z,20.1
2023-02-04T10:10:05.584Z,20
2023-02-04T10:11:08.077Z,20
2023-02-04T10:12:10.300Z,20.3
2023-02-04T10:13:12.527Z,20.2
2023-02-04T10:14:14.464Z,20
2023-02-04T10:15:16.972Z,20.2
2023-02-04T10:16:18.957Z,20.3
2023-02-04T10:17:21.200Z,19.9
2023-02-04T10:18:23.767Z,19.9
2023-02-04T10:19:26.406Z,20.1
2023-02-04T10:20:28.626Z,20.1
2023-02-04T10:21:32.059Z,20.2
2023-02-04T10:22:34.306Z,19.9
2023-02-04T10:23:36.531Z,20
2023-02-04T10:24:38.773Z,20.2
2023-02-04T10:25:41.275Z,20.1
2023-02-04T10:26:43.762Z,20.1
2023-02-04T10:27:46.017Z,19.9
2023-02-04T10:28:48.825Z,20.8
2023-02-04T10:29:51.514Z,20.1
2023-02-04T10:30:54.128Z,19.5
2023-02-04T10:31:56.937Z,20
2023-02-04T10:32:59.766Z,19.9
2023-02-04T10:34:02.267Z,20.1
2023-02-04T10:35:04.975Z,20.1
2023-02-04T10:36:06.909Z,19.7
2023-02-04T10:37:09.397Z,19.7
2023-02-04T10:38:11.311Z,19.8
2023-02-04T10:39:13.537Z,19.8
2023-02-04T10:40:16.348Z,19.9
2023-02-04T10:41:18.857Z,19.9
2023-02-04T10:42:21.359Z,19.9
2023-02-04T10:43:23.576Z,19.9
2023-02-04T10:44:25.821Z,20.1
2023-02-04T10:45:28.353Z,20.1
2023-02-04T10:46:30.898Z,20
2023-02-04T10:47:33.475Z,20.1
2023-02-04T10:48:35.711Z,19.7
2023-02-04T10:49:38.236Z,20.2
2023-02-04T10:50:40.820Z,20.5
2023-02-04T10:51:43.299Z,19.7
2023-02-04T10:52:45.524Z,20
2023-02-04T10:53:48.030Z,20.3
2023-02-04T10:54:49.708Z,19.9
2023-02-04T10:55:51.983Z,20.1
2023-02-04T10:56:54.466Z,19.8
2023-02-04T10:57:56.682Z,20.2
2023-02-04T10:58:58.886Z,19.6
2023-02-04T11:00:00.875Z,19.8
2023-02-04T11:01:03.634Z,19.7
2023-02-04T11:02:06.119Z,20.4
2023-02-04T11:03:08.642Z,20
2023-02-04T11:04:11.234Z,19.9
2023-02-04T11:05:13.741Z,20
2023-02-04T11:06:16.342Z,20.1
2023-02-04T11:07:18.554Z,20.1
2023-02-04T11:08:20.775Z,20
2023-02-04T11:09:22.973Z,20
2023-02-04T11:10:25.465Z,20
2023-02-04T11:11:27.967Z,20.2
2023-02-04T11:12:30.493Z,20.1
2023-02-04T11:13:32.977Z,20.1
2023-02-04T11:14:35.499Z,20
2023-02-04T11:15:38.028Z,19.8
2023-02-04T11:16:40.075Z,19.7
2023-02-04T11:17:42.587Z,20
2023-02-04T11:18:44.795Z,20.2
2023-02-04T11:19:47.307Z,19.9
2023-02-04T11:20:49.537Z,20.1
2023-02-04T11:21:52.150Z,20
2023-02-04T11:22:54.341Z,19.7
2023-02-04T11:23:56.594Z,20
2023-02-04T11:24:59.102Z,20.1
2023-02-04T11:26:01.668Z,20.2
2023-02-04T11:27:04.160Z,19.7
2023-02-04T11:28:06.470Z,19.9
2023-02-04T11:29:09.247Z,19.9
2023-02-04T11:30:11.793Z,19.8
2023-02-04T11:31:13.901Z,20
2023-02-04T11:32:17.419Z,19.9
2023-02-04T11:33:22.443Z,19.9
2023-02-04T11:34:24.971Z,19.7
2023-02-04T11:35:27.547Z,20
2023-02-04T11:36:30.053Z,20
2023-02-04T11:37:32.700Z,19.9
2023-02-04T11:38:34.942Z,20.1
2023-02-04T11:39:37.180Z,20.1
2023-02-04T11:40:39.695Z,19.9
2023-02-04T11:41:41.902Z,19.6
2023-02-04T11:42:44.395Z,19.8
2023-02-04T11:43:46.891Z,20
2023-02-04T11:44:49.378Z,19.9
2023-02-04T11:45:51.644Z,20.1
2023-02-04T11:46:54.287Z,20.2
2023-02-04T11:47:56.794Z,20.4
2023-02-04T11:48:59.001Z,20.3
2023-02-04T11:50:01.238Z,19.9
2023-02-04T11:51:03.835Z,19.5
2023-02-04T11:52:06.345Z,20
2023-02-04T11:53:08.946Z,19.9
2023-02-04T11:54:11.175Z,19.9
2023-02-04T11:55:13.677Z,20
2023-02-04T11:56:16.206Z,20.1
2023-02-04T11:57:18.444Z,20.1
2023-02-04T11:58:20.957Z,20.4
2023-02-04T11:59:23.463Z,20.1
2023-02-04T12:00:25.737Z,20.2
2023-02-04T12:01:27.684Z,20
2023-02-04T12:02:29.948Z,20.2
2023-02-04T12:03:32.514Z,20.2
2023-02-04T12:04:35.131Z,20
2023-02-04T12:05:37.632Z,19.5
2023-02-04T12:06:40.179Z,19.7
2023-02-04T12:07:42.390Z,19.9
2023-02-04T12:08:44.751Z,20.1
2023-02-04T12:09:47.276Z,20.1
2023-02-04T12:10:49.819Z,20.2
2023-02-04T12:11:52.349Z,20.2
2023-02-04T12:12:54.894Z,20.3
2023-02-04T12:13:57.137Z,19.7
2023-02-04T12:14:59.088Z,19.7
2023-02-04T12:16:01.655Z,20
2023-02-04T12:17:03.828Z,20
2023-02-04T12:18:06.328Z,19.9
2023-02-04T12:19:08.871Z,20.2
2023-02-04T12:20:11.382Z,19.9
2023-02-04T12:21:13.378Z,19.6
2023-02-04T12:22:16.015Z,19.8
2023-02-04T12:23:18.245Z,20.2
2023-02-04T12:24:20.877Z,19.7
2023-02-04T12:25:22.853Z,20.2
2023-02-04T12:26:25.342Z,20.2
2023-02-04T12:27:27.868Z,19.9
2023-02-04T12:28:30.446Z,19.8
2023-02-04T12:29:32.963Z,19.8
2023-02-04T12:30:35.488Z,19.9
2023-02-04T12:31:38.046Z,20.1
2023-02-04T12:32:41.022Z,19.5
2023-02-04T12:33:43.517Z,20
2023-02-04T12:34:46.033Z,20.1
2023-02-04T12:35:48.604Z,20
2023-02-04T12:36:51.100Z,19.9
2023-02-04T12:37:53.092Z,19.9
2023-02-04T12:38:55.601Z,20
2023-02-04T12:39:58.189Z,20.5
2023-02-04T12:41:00.688Z,19.9
2023-02-04T12:42:02.970Z,20
2023-02-04T12:43:05.475Z,20.2
2023-02-04T12:44:07.712Z,19.7
2023-02-04T12:45:10.231Z,20
2023-02-04T12:46:12.844Z,20.1
2023-02-04T12:47:15.116Z,20.2
2023-02-04T12:48:17.431Z,19.8
2023-02-04T12:49:20.244Z,19.9
2023-02-04T12:50:22.529Z,19.8
2023-02-04T12:51:24.780Z,19.7
2023-02-04T12:52:27.017Z,20.2
2023-02-04T12:53:29.555Z,20.2
2023-02-04T12:54:31.808Z,20.1
2023-02-04T12:55:34.787Z,20
2023-02-04T12:56:37.572Z,20
2023-02-04T12:57:40.100Z,19.9
2023-02-04T12:58:42.326Z,20
2023-02-04T12:59:44.832Z,19.9
2023-02-04T13:00:47.378Z,20.1
2023-02-04T13:01:50.257Z,19.9
2023-02-04T13:02:53.036Z,19.8
2023-02-04T13:03:55.841Z,20.1
2023-02-04T13:04:58.094Z,19.6
2023-02-04T13:05:59.751Z,20.2
2023-02-04T13:07:03.686Z,20.2
2023-02-04T13:08:06.328Z,20.1
2023-02-04T13:09:08.604Z,20.2
2023-02-04T13:10:10.883Z,20
2023-02-04T13:11:13.793Z,20
2023-02-04T13:12:15.498Z,20
2023-02-04T13:13:17.800Z,19.6
2023-02-04T13:14:20.126Z,20.1
2023-02-04T13:15:22.634Z,20.4
2023-02-04T13:16:24.893Z,20.3
2023-02-04T13:17:27.712Z,20
2023-02-04T13:18:30.199Z,19.8
2023-02-04T13:19:32.472Z,19.7
2023-02-04T13:20:34.986Z,20.4
2023-02-04T13:21:37.220Z,20.1
2023-02-04T13:22:39.465Z,20.2
2023-02-04T13:23:41.701Z,20
2023-02-04T13:24:43.951Z,20
2023-02-04T13:25:46.484Z,20.2
2023-02-04T13:26:48.803Z,20.2
2023-02-04T13:27:51.341Z,20
2023-02-04T13:28:54.220Z,20.1
2023-02-04T13:29:56.451Z,20.1
2023-02-04T13:30:58.940Z,20.1
2023-02-04T13:32:06.682Z,20.4
2023-02-04T13:33:09.170Z,20.2
2023-02-04T13:34:11.685Z,19.9
2023-02-04T13:35:13.620Z,20
2023-02-04T13:36:15.831Z,19.9
2023-02-04T13:37:18.434Z,20.1
2023-02-04T13:38:20.662Z,20.1
2023-02-04T13:39:22.887Z,19.8
2023-02-04T13:40:24.867Z,20.4
2023-02-04T13:41:26.799Z,20.1
2023-02-04T13:42:29.407Z,20
2023-02-04T13:43:31.890Z,20
2023-02-04T13:44:33.817Z,20
2023-02-04T13:45:36.006Z,20.3
2023-02-04T13:46:38.532Z,20.2
2023-02-04T13:47:41.108Z,20.1
2023-02-04T13:48:43.326Z,20.1
2023-02-04T13:49:45.836Z,20
2023-02-04T13:50:47.778Z,20.2
2023-02-04T13:51:50.298Z,20
2023-02-04T13:52:52.821Z,20
2023-02-04T13:53:55.315Z,20.1
2023-02-04T13:54:57.533Z,20
2023-02-04T13:56:00.116Z,20.1
2023-02-04T13:57:02.621Z,20.3
2023-02-04T13:58:05.248Z,19.8